createdAt,value
2023-04-26T00:00:37.970Z,68.01
2023-04-26T00:01:40.792Z,68.07
2023-04-26T00:02:43.768Z,68.27
2023-04-26T00:03:47.109Z,68.17
2023-04-26T00:04:57.181Z,68.23
2023-04-26T00:06:05.174Z,68.49
2023-04-26T00:07:08.866Z,68.59
2023-04-26T00:08:11.683Z,68.49
2023-04-26T00:09:14.589Z,68.46
2023-04-26T00:10:17.457Z,68.62
2023-04-26T00:11:20.296Z,68.59
2023-04-26T00:12:23.339Z,68.58
2023-04-26T00:13:26.676Z,68.67
2023-04-26T00:14:29.541Z,68.66
2023-04-26T00:15:33.404Z,68.59
2023-04-26T00:16:36.393Z,68.55
2023-04-26T00:17:39.345Z,68.40
2023-04-26T00:18:42.716Z,68.36
2023-04-26T00:19:46.444Z,68.58
2023-04-26T00:20:49.295Z,68.64
2023-04-26T00:21:52.133Z,68.65
2023-04-26T00:22:55.014Z,68.54
2023-04-26T00:23:57.967Z,68.49
2023-04-26T00:25:01.165Z,68.40
2023-04-26T00:26:04.238Z,68.36
2023-04-26T00:27:10.452Z,68.40
2023-04-26T00:28:13.350Z,68.47
2023-04-26T00:29:16.190Z,68.48
2023-04-26T00:30:19.218Z,68.47
2023-04-26T00:31:22.221Z,68.39
2023-04-26T00:32:25.364Z,68.38
2023-04-26T00:33:28.337Z,68.46
2023-04-26T00:34:38.563Z,68.62
2023-04-26T00:35:41.913Z,68.78
2023-04-26T00:36:45.110Z,68.54
2023-04-26T00:37:48.113Z,68.48
2023-04-26T00:38:51.176Z,68.49
2023-04-26T00:39:54.382Z,68.44
2023-04-26T00:40:57.354Z,68.32
2023-04-26T00:42:00.199Z,68.27
2023-04-26T00:43:04.772Z,68.30
2023-04-26T00:44:08.020Z,68.42
2023-04-26T00:45:11.080Z,68.33
2023-04-26T00:46:14.313Z,68.51
2023-04-26T00:47:17.338Z,68.41
2023-04-26T00:48:20.624Z,68.41
2023-04-26T00:49:25.396Z,68.52
2023-04-26T00:50:28.516Z,68.51
2023-04-26T00:51:31.482Z,68.66
2023-04-26T00:52:34.492Z,68.67
2023-04-26T00:53:37.902Z,68.87
2023-04-26T00:54:41.257Z,69.00
2023-04-26T00:55:45.993Z,68.98
2023-04-26T00:56:49.283Z,68.78
2023-04-26T00:57:52.175Z,68.77
2023-04-26T00:58:55.169Z,68.82
2023-04-26T00:59:58.277Z,68.76
2023-04-26T01:01:01.202Z,68.97
2023-04-26T01:02:05.381Z,68.89
2023-04-26T01:03:08.556Z,68.91
2023-04-26T01:04:11.741Z,68.96
2023-04-26T01:05:14.791Z,69.16
2023-04-26T01:06:17.650Z,69.09
2023-04-26T01:07:20.475Z,69.00
2023-04-26T01:08:24.760Z,69.11
2023-04-26T01:09:27.708Z,69.05
2023-04-26T01:10:31.139Z,69.14
2023-04-26T01:11:34.613Z,69.18
2023-04-26T01:12:38.654Z,69.34
2023-04-26T01:13:43.297Z,69.26
2023-04-26T01:14:47.286Z,69.21
2023-04-26T01:15:50.457Z,69.12
2023-04-26T01:16:53.853Z,69.25
2023-04-26T01:17:57.913Z,69.28
2023-04-26T01:19:14.532Z,69.35
2023-04-26T01:20:17.512Z,69.41
2023-04-26T01:21:24.519Z,69.53
2023-04-26T01:22:27.671Z,69.67
2023-04-26T01:23:30.530Z,69.70
2023-04-26T01:24:36.676Z,69.71
2023-04-26T01:25:39.867Z,69.60
2023-04-26T01:26:49.115Z,69.56
2023-04-26T01:27:52.374Z,69.40
2023-04-26T01:28:55.164Z,69.61
2023-04-26T01:29:58.021Z,69.43
2023-04-26T01:31:00.856Z,69.32
2023-04-26T01:32:03.803Z,69.35
2023-04-26T01:33:07.065Z,69.46
2023-04-26T01:34:10.087Z,69.42
2023-04-26T01:35:13.378Z,69.52
2023-04-26T01:36:16.341Z,69.56
2023-04-26T01:37:19.171Z,69.69
2023-04-26T01:38:22.133Z,69.70
2023-04-26T01:39:25.003Z,69.72
2023-04-26T01:40:28.031Z,69.81
2023-04-26T01:41:31.209Z,69.94
2023-04-26T01:42:34.230Z,69.93
2023-04-26T01:43:37.186Z,69.92
2023-04-26T01:44:40.761Z,69.70
2023-04-26T01:45:43.587Z,69.63
2023-04-26T01:46:46.434Z,69.68
2023-04-26T01:47:49.303Z,69.72
2023-04-26T01:48:52.647Z,69.55
2023-04-26T01:49:55.696Z,69.52
2023-04-26T01:50:58.536Z,69.62
2023-04-26T01:52:02.764Z,69.61
2023-04-26T01:53:05.874Z,70.06
2023-04-26T01:54:09.072Z,69.90
2023-04-26T01:55:12.018Z,69.88
2023-04-26T01:56:14.859Z,69.80
2023-04-26T01:57:17.937Z,69.73
2023-04-26T01:58:20.778Z,69.72
2023-04-26T01:59:23.689Z,70.07
2023-04-26T02:00:26.659Z,69.74
2023-04-26T02:01:29.678Z,69.59
2023-04-26T02:02:32.769Z,69.56
2023-04-26T02:03:36.473Z,69.73
2023-04-26T02:04:39.408Z,69.46
2023-04-26T02:05:42.272Z,69.35
2023-04-26T02:06:45.152Z,69.16
2023-04-26T02:07:48.017Z,69.06
2023-04-26T02:08:51.099Z,69.04
2023-04-26T02:09:54.418Z,68.95
2023-04-26T02:10:57.465Z,69.05
2023-04-26T02:12:00.326Z,69.10
2023-04-26T02:13:03.366Z,69.11
2023-04-26T02:14:06.195Z,69.21
2023-04-26T02:15:10.305Z,69.24
2023-04-26T02:16:13.165Z,69.32
2023-04-26T02:17:17.645Z,69.45
2023-04-26T02:18:23.030Z,69.54
2023-04-26T02:19:25.906Z,69.66
2023-04-26T02:20:28.709Z,69.60
2023-04-26T02:21:31.956Z,69.64
2023-04-26T02:22:34.781Z,69.80
2023-04-26T02:23:37.672Z,69.90
2023-04-26T02:24:41.229Z,69.74
2023-04-26T02:25:48.279Z,69.70
2023-04-26T02:26:51.455Z,69.99
2023-04-26T02:27:54.292Z,69.80
2023-04-26T02:28:57.296Z,69.93
2023-04-26T02:30:00.146Z,70.03
2023-04-26T02:31:04.047Z,70.07
2023-04-26T02:32:07.120Z,70.02
2023-04-26T02:33:10.353Z,70.03
2023-04-26T02:34:13.862Z,70.02
2023-04-26T02:35:16.922Z,69.98
2023-04-26T02:36:19.812Z,70.07
2023-04-26T02:37:23.430Z,69.98
2023-04-26T02:38:29.941Z,69.96
2023-04-26T02:39:32.915Z,69.96
2023-04-26T02:40:35.756Z,69.87
2023-04-26T02:41:38.594Z,69.94
2023-04-26T02:42:41.651Z,69.72
2023-04-26T02:43:44.446Z,69.88
2023-04-26T02:44:47.371Z,69.91
2023-04-26T02:45:50.236Z,69.97
2023-04-26T02:46:53.147Z,69.94
2023-04-26T02:47:56.174Z,69.95
2023-04-26T02:48:59.133Z,70.11
2023-04-26T02:50:02.097Z,69.99
2023-04-26T02:51:05.151Z,70.13
2023-04-26T02:52:08.062Z,70.24
2023-04-26T02:53:10.906Z,70.30
2023-04-26T02:54:13.761Z,70.44
2023-04-26T02:55:16.822Z,70.14
2023-04-26T02:56:20.648Z,70.11
2023-04-26T02:57:23.471Z,69.75
2023-04-26T02:58:26.299Z,69.75
2023-04-26T02:59:29.087Z,69.66
2023-04-26T03:00:32.114Z,69.55
2023-04-26T03:01:35.128Z,69.43
2023-04-26T03:02:38.133Z,69.38
2023-04-26T03:03:41.144Z,69.51
2023-04-26T03:04:44.039Z,69.57
2023-04-26T03:05:47.601Z,69.46
2023-04-26T03:06:50.529Z,69.57
2023-04-26T03:07:53.946Z,69.88
2023-04-26T03:08:57.081Z,69.84
2023-04-26T03:09:59.945Z,69.96
2023-04-26T03:11:03.497Z,69.65
2023-04-26T03:12:09.343Z,69.53
2023-04-26T03:13:12.236Z,69.69
2023-04-26T03:14:15.084Z,69.45
2023-04-26T03:15:18.091Z,69.39
2023-04-26T03:16:24.495Z,69.33
2023-04-26T03:17:27.799Z,69.24
2023-04-26T03:18:30.694Z,69.28
2023-04-26T03:19:33.993Z,69.33
2023-04-26T03:20:36.933Z,69.34
2023-04-26T03:21:39.778Z,69.27
2023-04-26T03:22:42.671Z,69.33
2023-04-26T03:23:45.486Z,69.36
2023-04-26T03:24:49.303Z,69.38
2023-04-26T03:25:53.073Z,69.51
2023-04-26T03:26:55.897Z,69.49
2023-04-26T03:27:58.880Z,69.76
2023-04-26T03:29:01.715Z,69.64
2023-04-26T03:30:05.692Z,69.32
2023-04-26T03:31:08.756Z,69.46
2023-04-26T03:32:11.660Z,69.51
2023-04-26T03:33:14.935Z,69.29
2023-04-26T03:34:17.901Z,69.10
2023-04-26T03:35:20.767Z,69.22
2023-04-26T03:36:23.715Z,69.06
2023-04-26T03:37:26.548Z,69.07
2023-04-26T03:38:29.353Z,68.95
2023-04-26T03:39:32.751Z,68.97
2023-04-26T03:40:35.604Z,69.37
2023-04-26T03:41:40.665Z,69.27
2023-04-26T03:42:43.494Z,69.25
2023-04-26T03:43:46.393Z,69.17
2023-04-26T03:44:49.258Z,69.28
2023-04-26T03:45:52.850Z,69.32
2023-04-26T03:46:55.856Z,68.96
2023-04-26T03:47:58.726Z,69.08
2023-04-26T03:49:01.650Z,68.91
2023-04-26T03:50:04.762Z,68.86
2023-04-26T03:51:08.322Z,69.35
2023-04-26T03:52:11.162Z,69.37
2023-04-26T03:53:14.383Z,69.38
2023-04-26T03:54:17.309Z,69.26
2023-04-26T03:55:20.127Z,69.14
2023-04-26T03:56:23.047Z,69.26
2023-04-26T03:57:25.844Z,69.06
2023-04-26T03:58:29.126Z,69.05
2023-04-26T03:59:32.043Z,68.90
2023-04-26T04:00:38.151Z,68.47
2023-04-26T04:01:41.331Z,68.16
2023-04-26T04:02:44.819Z,68.86
2023-04-26T04:03:48.139Z,68.42
2023-04-26T04:04:51.290Z,68.56
2023-04-26T04:05:54.230Z,68.71
2023-04-26T04:06:57.321Z,68.80
2023-04-26T04:08:00.399Z,68.77
2023-04-26T04:09:03.246Z,68.85
2023-04-26T04:10:06.787Z,69.15
2023-04-26T04:11:09.617Z,69.53
2023-04-26T04:12:12.439Z,69.22
2023-04-26T04:13:15.414Z,68.91
2023-04-26T04:14:18.397Z,69.18
2023-04-26T04:15:22.003Z,69.30
2023-04-26T04:16:25.038Z,69.70
2023-04-26T04:17:27.976Z,69.79
2023-04-26T04:18:30.798Z,69.59
2023-04-26T04:19:33.662Z,69.29
2023-04-26T04:20:36.802Z,69.88
2023-04-26T04:21:40.111Z,69.55
2023-04-26T04:22:42.972Z,69.61
2023-04-26T04:23:46.009Z,70.01
2023-04-26T04:24:48.963Z,70.05
2023-04-26T04:25:52.879Z,69.82
2023-04-26T04:26:55.895Z,69.81
2023-04-26T04:27:59.645Z,69.82
2023-04-26T04:29:09.850Z,70.30
2023-04-26T04:30:13.778Z,70.03
2023-04-26T04:31:16.692Z,70.08
2023-04-26T04:32:20.032Z,70.13
2023-04-26T04:33:22.838Z,70.11
2023-04-26T04:34:25.846Z,70.76
2023-04-26T04:35:34.705Z,70.49
2023-04-26T04:36:37.524Z,70.54
2023-04-26T04:37:40.432Z,70.59
2023-04-26T04:38:43.320Z,70.42
2023-04-26T04:39:46.174Z,70.91
2023-04-26T04:40:52.090Z,70.62
2023-04-26T04:41:55.693Z,70.39
2023-04-26T04:42:58.563Z,70.37
2023-04-26T04:44:01.755Z,70.47
2023-04-26T04:45:06.506Z,70.24
2023-04-26T04:46:11.295Z,70.34
2023-04-26T04:47:16.516Z,69.98
2023-04-26T04:48:19.948Z,70.26
2023-04-26T04:49:22.774Z,69.78
2023-04-26T04:50:25.726Z,69.32
2023-04-26T04:51:29.382Z,68.77
2023-04-26T04:52:32.319Z,69.01
2023-04-26T04:53:35.691Z,68.73
2023-04-26T04:54:38.555Z,69.64
2023-04-26T04:55:41.424Z,69.50
2023-04-26T04:56:45.434Z,69.00
2023-04-26T04:57:48.333Z,69.17
2023-04-26T04:58:51.390Z,68.92
2023-04-26T04:59:54.616Z,68.57
2023-04-26T05:00:58.102Z,68.85
2023-04-26T05:02:00.925Z,69.02
2023-04-26T05:03:04.205Z,68.91
2023-04-26T05:04:08.733Z,68.12
2023-04-26T05:05:12.550Z,68.60
2023-04-26T05:06:15.511Z,68.16
2023-04-26T05:07:19.717Z,67.93
2023-04-26T05:08:23.167Z,68.03
2023-04-26T05:09:26.093Z,68.12
2023-04-26T05:10:28.982Z,68.24
2023-04-26T05:11:31.798Z,67.79
2023-04-26T05:12:35.021Z,67.55
2023-04-26T05:13:37.834Z,67.27
2023-04-26T05:14:42.117Z,67.27
2023-04-26T05:15:44.947Z,67.95
2023-04-26T05:16:48.289Z,66.36
2023-04-26T05:17:51.456Z,66.26
2023-04-26T05:18:54.790Z,66.69
2023-04-26T05:19:58.197Z,66.90
2023-04-26T05:21:01.002Z,65.76
2023-04-26T05:22:04.356Z,66.13
2023-04-26T05:23:07.996Z,65.64
2023-04-26T05:24:10.818Z,65.86
2023-04-26T05:25:15.149Z,66.32
2023-04-26T05:26:18.552Z,65.57
2023-04-26T05:27:21.440Z,65.69
2023-04-26T05:28:24.601Z,65.88
2023-04-26T05:29:31.325Z,65.67
2023-04-26T05:30:34.165Z,65.87
2023-04-26T05:31:37.152Z,65.23
2023-04-26T05:32:40.028Z,64.90
2023-04-26T05:33:43.315Z,64.57
2023-04-26T05:34:46.144Z,64.95
2023-04-26T05:35:50.156Z,64.37
2023-04-26T05:37:06.213Z,64.00
2023-04-26T05:38:09.050Z,63.00
2023-04-26T05:39:13.691Z,63.51
2023-04-26T05:40:16.840Z,63.48
2023-04-26T05:41:19.649Z,63.27
2023-04-26T05:42:22.717Z,64.42
2023-04-26T05:43:25.604Z,63.42
2023-04-26T05:44:28.418Z,61.62
2023-04-26T05:45:31.384Z,61.68
2023-04-26T05:46:34.349Z,61.58
2023-04-26T05:47:37.924Z,62.08
2023-04-26T05:48:40.848Z,61.48
2023-04-26T05:49:43.702Z,61.13
2023-04-26T05:50:46.516Z,60.95
2023-04-26T05:51:49.628Z,60.94
2023-04-26T05:52:52.454Z,61.35
2023-04-26T05:53:55.435Z,61.24
2023-04-26T05:54:58.429Z,60.43
2023-04-26T05:56:01.323Z,60.19
2023-04-26T05:57:04.728Z,59.87
2023-04-26T05:58:07.766Z,60.50
2023-04-26T05:59:10.866Z,60.24
2023-04-26T06:00:14.819Z,59.06
2023-04-26T06:01:18.226Z,58.77
2023-04-26T06:02:21.154Z,58.15
2023-04-26T06:03:24.150Z,58.40
2023-04-26T06:04:27.466Z,58.22
2023-04-26T06:05:30.889Z,57.43
2023-04-26T06:06:33.835Z,56.49
2023-04-26T06:07:37.363Z,56.08
2023-04-26T06:08:40.296Z,54.71
2023-04-26T06:09:43.195Z,55.40
2023-04-26T06:10:45.988Z,54.21
2023-04-26T06:11:48.845Z,54.63
2023-04-26T06:12:52.014Z,54.47
2023-04-26T06:13:55.184Z,54.41
2023-04-26T06:14:58.447Z,54.09
2023-04-26T06:16:04.167Z,53.90
2023-04-26T06:17:07.356Z,54.33
2023-04-26T06:18:10.316Z,53.69
2023-04-26T06:19:13.195Z,52.20
2023-04-26T06:20:16.072Z,52.31
2023-04-26T06:21:18.883Z,53.21
2023-04-26T06:22:21.900Z,52.40
2023-04-26T06:23:24.835Z,52.11
2023-04-26T06:24:27.685Z,51.68
2023-04-26T06:25:30.523Z,51.60
2023-04-26T06:26:33.535Z,51.71
2023-04-26T06:27:36.409Z,51.30
2023-04-26T06:28:42.116Z,51.15
2023-04-26T06:29:46.566Z,51.33
2023-04-26T06:30:49.777Z,52.26
2023-04-26T06:31:52.701Z,51.06
2023-04-26T06:32:55.776Z,50.97
2023-04-26T06:33:58.919Z,51.40
2023-04-26T06:35:01.800Z,52.27
2023-04-26T06:36:04.761Z,51.19
2023-04-26T06:37:07.667Z,51.56
2023-04-26T06:38:10.838Z,51.32
2023-04-26T06:39:13.654Z,49.44
2023-04-26T06:40:17.154Z,48.42
2023-04-26T06:41:20.109Z,48.34
2023-04-26T06:42:23.696Z,48.46
2023-04-26T06:43:26.593Z,47.59
2023-04-26T06:44:29.437Z,48.14
2023-04-26T06:45:33.410Z,48.29
2023-04-26T06:46:36.371Z,48.35
2023-04-26T06:47:39.705Z,48.71
2023-04-26T06:48:42.779Z,48.95
2023-04-26T06:49:45.698Z,48.10
2023-04-26T06:50:48.559Z,48.78
2023-04-26T06:51:51.632Z,48.50
2023-04-26T06:52:54.726Z,48.45
2023-04-26T06:54:00.257Z,49.00
2023-04-26T06:55:04.822Z,49.15
2023-04-26T06:56:07.845Z,48.61
2023-04-26T06:57:10.757Z,48.98
2023-04-26T06:58:13.569Z,49.93
2023-04-26T06:59:16.459Z,48.47
2023-04-26T07:00:19.569Z,47.71
2023-04-26T07:01:22.420Z,47.87
2023-04-26T07:02:25.905Z,48.50
2023-04-26T07:03:29.379Z,49.12
2023-04-26T07:04:33.104Z,48.70
2023-04-26T07:05:36.200Z,48.92
2023-04-26T07:06:40.574Z,48.34
2023-04-26T07:07:43.518Z,48.66
2023-04-26T07:08:46.366Z,48.01
2023-04-26T07:09:49.309Z,48.28
2023-04-26T07:10:53.047Z,48.65
2023-04-26T07:11:56.142Z,48.29
2023-04-26T07:12:59.313Z,48.19
2023-04-26T07:14:03.302Z,49.12
2023-04-26T07:15:08.162Z,48.41
2023-04-26T07:16:11.141Z,46.36
2023-04-26T07:17:14.209Z,46.82
2023-04-26T07:18:17.033Z,45.69
2023-04-26T07:19:20.538Z,45.49
2023-04-26T07:20:24.198Z,46.49
2023-04-26T07:21:28.110Z,46.58
2023-04-26T07:22:31.050Z,45.67
2023-04-26T07:23:34.110Z,45.07
2023-04-26T07:24:36.958Z,44.87
2023-04-26T07:25:39.762Z,45.15
2023-04-26T07:26:42.910Z,46.34
2023-04-26T07:27:45.783Z,46.41
2023-04-26T07:28:48.657Z,46.06
2023-04-26T07:29:55.316Z,46.90
2023-04-26T07:30:58.705Z,46.58
2023-04-26T07:32:01.741Z,44.57
2023-04-26T07:33:04.893Z,44.78
2023-04-26T07:34:07.922Z,45.28
2023-04-26T07:35:17.161Z,45.59
2023-04-26T07:36:20.407Z,45.65
2023-04-26T07:37:24.773Z,45.16
2023-04-26T07:38:27.664Z,44.86
2023-04-26T07:39:30.641Z,44.91
2023-04-26T07:40:33.485Z,45.34
2023-04-26T07:41:36.916Z,45.86
2023-04-26T07:42:39.732Z,45.08
2023-04-26T07:43:42.584Z,43.72
2023-04-26T07:44:45.477Z,43.67
2023-04-26T07:45:48.668Z,44.44
2023-04-26T07:46:52.347Z,44.50
2023-04-26T07:47:55.826Z,44.85
2023-04-26T07:48:58.693Z,44.46
2023-04-26T07:50:01.540Z,43.86
2023-04-26T07:51:12.625Z,44.68
2023-04-26T07:52:15.530Z,44.05
2023-04-26T07:53:18.358Z,44.81
2023-04-26T07:54:21.232Z,44.90
2023-04-26T07:55:24.381Z,44.50
2023-04-26T07:56:27.225Z,44.30
2023-04-26T07:57:30.101Z,43.98
2023-04-26T07:58:34.299Z,43.63
2023-04-26T07:59:37.165Z,43.43
2023-04-26T08:00:41.299Z,42.43
2023-04-26T08:01:44.186Z,43.07
2023-04-26T08:02:48.337Z,43.78
2023-04-26T08:03:51.445Z,44.07
2023-04-26T08:04:56.490Z,42.59
2023-04-26T08:06:00.645Z,41.88
2023-04-26T08:07:04.146Z,41.98
2023-04-26T08:08:07.059Z,41.49
2023-04-26T08:09:09.870Z,41.41
2023-04-26T08:10:14.161Z,42.58
2023-04-26T08:11:17.209Z,41.75
2023-04-26T08:12:20.251Z,42.07
2023-04-26T08:13:24.470Z,42.84
2023-04-26T08:14:28.588Z,43.60
2023-04-26T08:15:31.437Z,43.65
2023-04-26T08:16:34.433Z,42.77
2023-04-26T08:17:37.587Z,41.50
2023-04-26T08:18:40.684Z,41.70
2023-04-26T08:19:43.497Z,41.11
2023-04-26T08:20:46.400Z,41.36
2023-04-26T08:21:49.300Z,42.41
2023-04-26T08:22:59.710Z,41.86
2023-04-26T08:24:02.543Z,41.03
2023-04-26T08:25:06.032Z,40.38
2023-04-26T08:26:08.933Z,41.66
2023-04-26T08:27:11.875Z,41.47
2023-04-26T08:28:15.854Z,40.81
2023-04-26T08:29:19.981Z,42.32
2023-04-26T08:30:23.293Z,43.43
2023-04-26T08:31:26.280Z,41.26
2023-04-26T08:32:29.204Z,40.11
2023-04-26T08:33:32.115Z,38.32
2023-04-26T08:34:35.091Z,39.28
2023-04-26T08:35:37.983Z,38.97
2023-04-26T08:36:43.077Z,39.20
2023-04-26T08:37:46.314Z,40.96
2023-04-26T08:38:49.133Z,40.29
2023-04-26T08:39:51.991Z,40.08
2023-04-26T08:40:57.528Z,39.59
2023-04-26T08:42:07.186Z,40.89
2023-04-26T08:43:12.966Z,39.70
2023-04-26T08:44:15.981Z,39.51
2023-04-26T08:45:18.904Z,38.89
2023-04-26T08:46:22.957Z,39.27
2023-04-26T08:47:42.594Z,38.66
2023-04-26T08:48:46.815Z,39.39
2023-04-26T08:50:00.541Z,38.51
2023-04-26T08:51:03.992Z,38.76
2023-04-26T08:52:10.487Z,38.40
2023-04-26T08:53:17.253Z,39.40
2023-04-26T08:54:21.388Z,40.61
2023-04-26T08:55:25.383Z,39.24
2023-04-26T08:56:29.695Z,38.73
2023-04-26T08:57:34.776Z,39.03
2023-04-26T08:58:39.528Z,39.34
2023-04-26T08:59:44.736Z,39.57
2023-04-26T09:00:47.783Z,39.33
2023-04-26T09:01:51.148Z,39.30
2023-04-26T09:02:54.706Z,39.73
2023-04-26T09:03:58.550Z,39.99
2023-04-26T09:05:01.954Z,39.07
2023-04-26T09:06:08.339Z,38.72
2023-04-26T09:07:14.544Z,39.04
2023-04-26T09:08:19.495Z,38.22
2023-04-26T09:09:23.823Z,38.42
2023-04-26T09:10:26.734Z,38.43
2023-04-26T09:11:30.442Z,39.07
2023-04-26T09:12:33.678Z,38.38
2023-04-26T09:13:36.685Z,38.47
2023-04-26T09:14:40.305Z,38.77
2023-04-26T09:15:43.391Z,38.85
2023-04-26T09:16:46.548Z,37.58
2023-04-26T09:17:50.937Z,37.45
2023-04-26T09:18:55.982Z,37.56
2023-04-26T09:20:00.197Z,36.75
2023-04-26T09:21:08.260Z,37.04
2023-04-26T09:22:12.013Z,36.91
2023-04-26T09:23:15.168Z,37.21
2023-04-26T09:24:18.453Z,37.56
2023-04-26T09:25:30.722Z,37.91
2023-04-26T09:26:33.612Z,38.21
2023-04-26T09:27:37.593Z,37.40
2023-04-26T09:28:40.524Z,38.15
2023-04-26T09:29:59.432Z,36.53
2023-04-26T09:31:02.259Z,37.85
2023-04-26T09:32:05.348Z,36.92
2023-04-26T09:33:10.604Z,37.61
2023-04-26T09:34:14.711Z,36.87
2023-04-26T09:35:40.006Z,36.91
2023-04-26T09:36:52.742Z,36.09
2023-04-26T09:38:12.103Z,35.84
2023-04-26T09:39:15.906Z,37.74
2023-04-26T09:40:25.083Z,36.89
2023-04-26T09:41:44.986Z,37.08
2023-04-26T09:42:47.929Z,35.46
2023-04-26T09:43:53.587Z,36.85
2023-04-26T09:45:07.738Z,35.89
2023-04-26T09:46:10.944Z,36.87
2023-04-26T09:47:13.959Z,36.09
2023-04-26T09:48:33.368Z,35.51
2023-04-26T09:49:52.833Z,35.89
2023-04-26T09:51:16.041Z,34.47
2023-04-26T09:52:20.246Z,35.30
2023-04-26T09:53:38.570Z,34.98
2023-04-26T09:54:48.308Z,36.86
2023-04-26T09:55:51.594Z,35.96
2023-04-26T09:57:01.785Z,35.50
2023-04-26T09:58:11.866Z,35.12
2023-04-26T09:59:14.785Z,35.98
2023-04-26T10:00:18.086Z,35.34
2023-04-26T10:01:21.341Z,35.67
2023-04-26T10:02:27.614Z,35.29
2023-04-26T10:03:30.988Z,35.47
2023-04-26T10:04:34.244Z,35.36
2023-04-26T10:05:37.965Z,34.89
2023-04-26T10:06:40.823Z,35.05
2023-04-26T10:07:43.900Z,34.37
2023-04-26T10:08:47.106Z,35.86
2023-04-26T10:09:51.185Z,35.52
2023-04-26T10:10:55.356Z,35.35
2023-04-26T10:12:01.265Z,34.85
2023-04-26T10:13:04.889Z,35.68
2023-04-26T10:14:07.983Z,35.13
2023-04-26T10:15:12.414Z,34.90
2023-04-26T10:16:15.330Z,34.64
2023-04-26T10:17:21.824Z,34.74
2023-04-26T10:18:24.993Z,35.77
2023-04-26T10:19:27.962Z,36.00
2023-04-26T10:20:31.116Z,37.60
2023-04-26T10:21:38.296Z,36.16
2023-04-26T10:22:47.015Z,35.14
2023-04-26T10:23:50.830Z,33.66
2023-04-26T10:24:55.944Z,33.08
2023-04-26T10:25:58.974Z,33.29
2023-04-26T10:27:04.402Z,33.70
2023-04-26T10:28:07.901Z,34.03
2023-04-26T10:29:10.762Z,33.67
2023-04-26T10:30:18.246Z,34.12
2023-04-26T10:31:21.209Z,35.04
2023-04-26T10:32:24.901Z,35.01
2023-04-26T10:33:28.526Z,33.61
2023-04-26T10:34:33.032Z,33.52
2023-04-26T10:35:39.389Z,34.26
2023-04-26T10:37:18.272Z,32.84
2023-04-26T10:38:21.959Z,31.96
2023-04-26T10:39:26.239Z,31.97
2023-04-26T10:40:42.101Z,31.82
2023-04-26T10:41:45.000Z,31.98
2023-04-26T10:42:48.478Z,31.77
2023-04-26T10:43:51.685Z,32.13
2023-04-26T10:44:55.784Z,32.01
2023-04-26T10:45:58.933Z,33.02
2023-04-26T10:47:01.834Z,33.61
2023-04-26T10:48:32.246Z,34.83
2023-04-26T10:49:50.420Z,33.30
2023-04-26T10:51:13.301Z,33.89
2023-04-26T10:52:21.706Z,31.13
2023-04-26T10:53:24.679Z,31.31
2023-04-26T10:54:27.553Z,30.63
2023-04-26T10:55:40.286Z,31.44
2023-04-26T10:56:43.768Z,32.16
2023-04-26T10:57:52.162Z,33.26
2023-04-26T11:00:31.988Z,34.61
2023-04-26T11:01:35.734Z,33.40
2023-04-26T11:02:54.953Z,33.14
2023-04-26T11:03:58.406Z,33.33
2023-04-26T11:05:05.639Z,32.31
2023-04-26T11:06:11.159Z,32.51
2023-04-26T11:07:15.628Z,32.24
2023-04-26T11:08:20.996Z,32.64
2023-04-26T11:09:50.448Z,33.34
2023-04-26T11:10:59.895Z,32.63
2023-04-26T11:12:03.021Z,32.47
2023-04-26T11:13:06.398Z,32.95
2023-04-26T11:14:10.377Z,32.91
2023-04-26T11:15:14.460Z,33.62
2023-04-26T11:16:19.198Z,33.52
2023-04-26T11:17:22.350Z,33.89
2023-04-26T11:18:25.554Z,32.06
2023-04-26T11:19:28.491Z,32.04
2023-04-26T11:20:33.467Z,31.66
2023-04-26T11:21:37.997Z,31.25
2023-04-26T11:22:43.103Z,31.36
2023-04-26T11:23:54.769Z,32.83
2023-04-26T11:24:57.695Z,33.47
2023-04-26T11:26:07.968Z,33.36
2023-04-26T11:27:11.702Z,34.29
2023-04-26T11:28:14.587Z,34.61
2023-04-26T11:29:20.757Z,34.13
2023-04-26T11:30:23.729Z,34.40
2023-04-26T11:31:26.648Z,35.27
2023-04-26T11:32:29.574Z,34.97
2023-04-26T11:33:32.668Z,34.83
2023-04-26T11:34:36.931Z,35.78
2023-04-26T11:35:40.412Z,35.73
2023-04-26T11:36:43.321Z,34.55
2023-04-26T11:37:47.200Z,34.76
2023-04-26T11:38:50.148Z,34.96
2023-04-26T11:39:53.483Z,34.64
2023-04-26T11:41:01.542Z,34.26
2023-04-26T11:42:12.499Z,34.78
2023-04-26T11:43:15.733Z,34.71
2023-04-26T11:44:22.254Z,34.98
2023-04-26T11:45:25.073Z,35.07
2023-04-26T11:46:28.158Z,35.56
2023-04-26T11:47:32.656Z,33.84
2023-04-26T11:48:39.424Z,34.70
2023-04-26T11:49:42.657Z,34.49
2023-04-26T11:50:45.741Z,34.56
2023-04-26T11:51:50.917Z,34.72
2023-04-26T11:52:56.907Z,34.96
2023-04-26T11:54:02.914Z,34.94
2023-04-26T11:55:09.968Z,35.42
2023-04-26T11:56:17.954Z,34.08
2023-04-26T11:57:20.983Z,34.95
2023-04-26T11:58:23.820Z,33.06
2023-04-26T11:59:28.028Z,33.21
2023-04-26T12:00:30.947Z,35.61
2023-04-26T12:01:34.461Z,32.96
2023-04-26T12:02:37.521Z,33.38
2023-04-26T12:03:41.187Z,34.02
2023-04-26T12:04:45.704Z,34.43
2023-04-26T12:05:56.585Z,33.98
2023-04-26T12:06:59.930Z,32.88
2023-04-26T12:08:02.808Z,33.67
2023-04-26T12:09:07.077Z,33.11
2023-04-26T12:10:25.094Z,31.64
2023-04-26T12:11:28.434Z,31.14
2023-04-26T12:12:31.261Z,31.25
2023-04-26T12:13:34.237Z,31.48
2023-04-26T12:14:39.478Z,31.06
2023-04-26T12:15:42.351Z,30.67
2023-04-26T12:16:45.757Z,31.28
2023-04-26T12:18:03.033Z,32.32
2023-04-26T12:19:08.380Z,32.40
2023-04-26T12:20:12.672Z,33.18
2023-04-26T12:21:15.490Z,32.78
2023-04-26T12:22:23.132Z,32.23
2023-04-26T12:23:26.166Z,32.28
2023-04-26T12:24:34.617Z,32.66
2023-04-26T12:25:39.614Z,30.77
2023-04-26T12:26:48.044Z,32.33
2023-04-26T12:27:50.916Z,32.02
2023-04-26T12:28:53.731Z,31.49
2023-04-26T12:29:56.648Z,32.13
2023-04-26T12:30:59.560Z,33.07
2023-04-26T12:32:03.493Z,33.19
2023-04-26T12:33:16.621Z,33.15
2023-04-26T12:34:20.216Z,33.18
2023-04-26T12:35:25.041Z,33.18
2023-04-26T12:36:29.527Z,33.70
2023-04-26T12:37:33.456Z,34.28
2023-04-26T12:38:36.368Z,34.77
2023-04-26T12:39:39.428Z,33.83
2023-04-26T12:40:45.754Z,35.19
2023-04-26T12:41:48.678Z,34.39
2023-04-26T12:42:53.779Z,34.68
2023-04-26T12:43:56.881Z,34.05
2023-04-26T12:44:59.771Z,34.34
2023-04-26T12:46:02.977Z,35.36
2023-04-26T12:47:06.036Z,34.37
2023-04-26T12:48:09.528Z,34.95
2023-04-26T12:49:12.976Z,35.57
2023-04-26T12:50:18.558Z,36.31
2023-04-26T12:51:21.701Z,32.95
2023-04-26T12:52:24.512Z,32.87
2023-04-26T12:53:27.390Z,33.50
2023-04-26T12:54:30.244Z,34.30
2023-04-26T12:55:33.230Z,32.99
2023-04-26T12:56:39.336Z,32.82
2023-04-26T12:57:43.780Z,33.11
2023-04-26T12:58:46.758Z,33.37
2023-04-26T12:59:49.590Z,33.74
2023-04-26T13:00:52.609Z,33.97
2023-04-26T13:01:55.465Z,33.38
2023-04-26T13:02:58.508Z,33.78
2023-04-26T13:04:02.316Z,33.72
2023-04-26T13:05:06.414Z,34.19
2023-04-26T13:06:09.410Z,34.03
2023-04-26T13:07:12.495Z,33.38
2023-04-26T13:08:15.674Z,33.44
2023-04-26T13:09:18.909Z,33.62
2023-04-26T13:10:21.804Z,34.45
2023-04-26T13:11:24.599Z,34.29
2023-04-26T13:12:27.510Z,34.35
2023-04-26T13:13:42.310Z,33.97
2023-04-26T13:14:47.468Z,34.31
2023-04-26T13:15:50.334Z,34.50
2023-04-26T13:16:53.885Z,34.50
2023-04-26T13:17:57.147Z,34.31
2023-04-26T13:19:00.076Z,34.00
2023-04-26T13:20:03.464Z,33.55
2023-04-26T13:21:06.480Z,34.27
2023-04-26T13:22:12.621Z,33.49
2023-04-26T13:23:15.465Z,33.78
2023-04-26T13:24:18.262Z,33.36
2023-04-26T13:25:21.291Z,34.26
2023-04-26T13:26:25.832Z,34.85
2023-04-26T13:27:31.636Z,34.61
2023-04-26T13:28:37.867Z,34.46
2023-04-26T13:29:42.074Z,34.91
2023-04-26T13:30:44.895Z,35.70
2023-04-26T13:31:47.877Z,36.67
2023-04-26T13:32:50.841Z,35.84
2023-04-26T13:33:53.823Z,36.34
2023-04-26T13:34:57.328Z,36.24
2023-04-26T13:36:00.455Z,35.39
2023-04-26T13:37:05.110Z,35.16
2023-04-26T13:38:08.012Z,35.81
2023-04-26T13:39:11.292Z,35.29
2023-04-26T13:40:14.377Z,35.66
2023-04-26T13:41:17.519Z,35.72
2023-04-26T13:42:20.497Z,35.98
2023-04-26T13:43:23.418Z,35.28
2023-04-26T13:44:27.198Z,36.05
2023-04-26T13:45:30.083Z,35.70
2023-04-26T13:46:33.036Z,35.27
2023-04-26T13:47:36.439Z,35.40
2023-04-26T13:48:39.376Z,34.73